createdAt,value
2023-03-17T00:00:50.701Z,101829.86
2023-03-17T00:03:31.817Z,101826.72
2023-03-17T00:06:02.356Z,101826.46
2023-03-17T00:08:36.164Z,101829.66
2023-03-17T00:11:04.808Z,101832.47
2023-03-17T00:13:33.818Z,101830.36
2023-03-17T00:16:07.736Z,101830.40
2023-03-17T00:18:37.187Z,101833.77
2023-03-17T00:21:06.179Z,101829.65
2023-03-17T00:23:35.552Z,101832.28
2023-03-17T00:26:03.919Z,101837.24
2023-03-17T00:28:32.444Z,101835.31
2023-03-17T00:31:03.558Z,101839.86
2023-03-17T00:33:34.862Z,101839.36
2023-03-17T00:36:03.692Z,101843.73
2023-03-17T00:38:32.177Z,101846.64
2023-03-17T00:41:00.713Z,101849.09
2023-03-17T00:43:30.743Z,101846.72
2023-03-17T00:45:59.172Z,101850.73
2023-03-17T00:48:30.138Z,101853.51
2023-03-17T00:50:58.774Z,101855.45
2023-03-17T00:53:30.688Z,101857.95
2023-03-17T00:56:00.987Z,101861.73
2023-03-17T00:58:33.049Z,101866.08
2023-03-17T01:01:01.622Z,101865.15
2023-03-17T01:03:31.279Z,101867.95
2023-03-17T01:06:00.575Z,101867.15
2023-03-17T01:08:30.331Z,101869.21
2023-03-17T01:10:59.667Z,101869.15
2023-03-17T01:13:28.698Z,101868.46
2023-03-17T01:15:57.944Z,101870.80
2023-03-17T01:18:26.368Z,101875.15
2023-03-17T01:20:54.776Z,101873.33
2023-03-17T01:23:23.242Z,101873.11
2023-03-17T01:25:51.872Z,101870.79
2023-03-17T01:28:21.042Z,101878.89
2023-03-17T01:30:50.193Z,101880.39
2023-03-17T01:33:20.041Z,101885.39
2023-03-17T01:35:52.284Z,101887.83
2023-03-17T01:42:01.646Z,101891.23
2023-03-17T01:44:30.930Z,101900.01
2023-03-17T01:47:01.270Z,101905.64
2023-03-17T01:49:35.688Z,101905.35
2023-03-17T01:52:16.234Z,101908.71
2023-03-17T01:54:57.024Z,101916.00
2023-03-17T01:57:34.322Z,101917.55
2023-03-17T02:00:20.527Z,101915.40
2023-03-17T02:02:51.962Z,101917.94
2023-03-17T02:05:24.296Z,101920.80
2023-03-17T02:07:54.622Z,101925.39
2023-03-17T02:10:30.027Z,101926.05
2023-03-17T02:13:04.105Z,101932.23
2023-03-17T02:15:46.393Z,101930.10
2023-03-17T02:18:15.831Z,101932.24
2023-03-17T02:20:47.205Z,101940.05
2023-03-17T02:23:24.391Z,101938.48
2023-03-17T02:25:54.240Z,101944.40
2023-03-17T02:28:31.002Z,101948.73
2023-03-17T02:31:00.283Z,101946.93
2023-03-17T02:33:29.983Z,101955.15
2023-03-17T02:35:58.350Z,101956.15
2023-03-17T02:38:27.317Z,101959.44
2023-03-17T02:40:56.690Z,101965.67
2023-03-17T02:43:26.017Z,101967.56
2023-03-17T02:45:57.722Z,101964.42
2023-03-17T02:48:27.539Z,101969.67
2023-03-17T02:50:56.940Z,101971.15
2023-03-17T02:53:25.339Z,101971.48
2023-03-17T02:55:53.801Z,101972.77
2023-03-17T02:58:22.112Z,101975.07
2023-03-17T03:00:50.604Z,101977.00
2023-03-17T03:03:19.389Z,101983.08
2023-03-17T03:05:48.044Z,101982.93
2023-03-17T03:08:17.308Z,101987.10
2023-03-17T03:10:47.063Z,101987.19
2023-03-17T03:13:16.315Z,101992.02
2023-03-17T03:15:45.138Z,101987.67
2023-03-17T03:18:13.595Z,101988.02
2023-03-17T03:20:44.784Z,101989.89
2023-03-17T03:23:15.495Z,101991.64
2023-03-17T03:25:47.081Z,101994.41
2023-03-17T03:28:15.726Z,101992.36
2023-03-17T03:30:45.661Z,101992.52
2023-03-17T03:33:16.277Z,101995.43
2023-03-17T03:35:44.827Z,101994.10
2023-03-17T03:38:14.165Z,102000.40
2023-03-17T03:40:42.518Z,101997.89
2023-03-17T03:43:22.530Z,102000.98
2023-03-17T03:45:52.044Z,102005.59
2023-03-17T03:48:21.390Z,102007.18
2023-03-17T03:50:50.039Z,102005.00
2023-03-17T03:53:18.327Z,102007.70
2023-03-17T03:55:46.943Z,102009.63
2023-03-17T03:58:15.678Z,102011.86
2023-03-17T04:00:44.169Z,102011.98
2023-03-17T04:03:13.615Z,102017.79
2023-03-17T04:05:42.210Z,102016.55
2023-03-17T04:08:11.587Z,102018.44
2023-03-17T04:10:40.258Z,102019.09
2023-03-17T04:13:08.759Z,102023.80
2023-03-17T04:15:37.798Z,102027.20
2023-03-17T04:18:06.216Z,102030.81
2023-03-17T04:20:34.738Z,102033.64
2023-03-17T04:23:03.158Z,102034.02
2023-03-17T04:25:31.823Z,102034.55
2023-03-17T04:31:39.917Z,102040.12
2023-03-17T04:34:15.881Z,102044.40
2023-03-17T04:36:45.892Z,102045.65
2023-03-17T04:39:15.817Z,102043.81
2023-03-17T04:41:44.371Z,102041.80
2023-03-17T04:44:13.247Z,102047.20
2023-03-17T04:46:42.204Z,102043.46
2023-03-17T04:49:10.662Z,102045.38
2023-03-17T04:51:39.218Z,102046.50
2023-03-17T04:54:10.541Z,102049.65
2023-03-17T04:56:40.774Z,102059.58
2023-03-17T04:59:09.403Z,102058.56
2023-03-17T05:01:39.289Z,102055.99
2023-03-17T05:04:09.102Z,102057.21
2023-03-17T05:06:38.550Z,102059.63
2023-03-17T05:09:07.140Z,102060.94
2023-03-17T05:11:35.658Z,102062.20
2023-03-17T05:14:04.181Z,102062.35
2023-03-17T05:16:32.641Z,102066.30
2023-03-17T05:19:01.185Z,102074.80
2023-03-17T05:21:29.710Z,102075.48
2023-03-17T05:23:58.017Z,102078.91
2023-03-17T05:26:27.326Z,102080.49
2023-03-17T05:28:55.831Z,102078.10
2023-03-17T05:31:24.420Z,102085.88
2023-03-17T05:33:52.798Z,102088.54
2023-03-17T05:36:21.440Z,102091.52
2023-03-17T05:38:49.815Z,102091.86
2023-03-17T05:41:18.346Z,102092.58
2023-03-17T05:43:47.009Z,102095.31
2023-03-17T05:46:15.685Z,102101.00
2023-03-17T05:48:44.514Z,102101.48
2023-03-17T05:51:12.851Z,102103.77
2023-03-17T05:53:41.918Z,102106.19
2023-03-17T05:56:10.488Z,102104.96
2023-03-17T05:58:43.071Z,102111.02
2023-03-17T06:01:11.517Z,102110.63
2023-03-17T06:03:40.040Z,102110.38
2023-03-17T06:06:10.475Z,102112.79
2023-03-17T06:08:39.015Z,102115.46
2023-03-17T06:11:07.520Z,102113.41
2023-03-17T06:13:36.174Z,102114.20
2023-03-17T06:16:05.009Z,102118.45
2023-03-17T06:18:33.578Z,102121.74
2023-03-17T06:21:02.387Z,102118.08
2023-03-17T06:23:31.272Z,102122.53
2023-03-17T06:25:59.755Z,102129.84
2023-03-17T06:28:28.137Z,102130.45
2023-03-17T06:30:56.577Z,102130.82
2023-03-17T06:33:27.523Z,102130.80
2023-03-17T06:35:56.558Z,102136.02
2023-03-17T06:38:25.810Z,102135.98
2023-03-17T06:40:54.481Z,102134.35
2023-03-17T06:43:25.053Z,102135.54
2023-03-17T06:45:53.670Z,102135.46
2023-03-17T06:48:23.707Z,102127.43
2023-03-17T06:50:52.070Z,102131.81
2023-03-17T06:53:20.955Z,102134.38
2023-03-17T06:55:49.513Z,102133.70
2023-03-17T06:58:18.074Z,102134.06
2023-03-17T07:00:49.511Z,102144.77
2023-03-17T07:03:18.060Z,102143.89
2023-03-17T07:05:47.114Z,102138.98
2023-03-17T07:08:16.024Z,102139.11
2023-03-17T07:10:46.188Z,102138.27
2023-03-17T07:13:14.923Z,102127.98
2023-03-17T07:15:45.570Z,102127.25
2023-03-17T07:21:52.506Z,102123.97
2023-03-17T07:24:21.040Z,102122.05
2023-03-17T07:26:53.644Z,102122.67
2023-03-17T07:29:22.873Z,102123.88
2023-03-17T07:31:51.454Z,102123.67
2023-03-17T07:34:22.573Z,102118.28
2023-03-17T07:36:51.249Z,102115.87
2023-03-17T07:39:20.250Z,102118.38
2023-03-17T07:41:53.325Z,102114.21
2023-03-17T07:44:23.338Z,102121.06
2023-03-17T07:46:52.316Z,102113.59
2023-03-17T07:49:38.166Z,102114.53
2023-03-17T07:52:10.668Z,102108.77
2023-03-17T07:54:42.196Z,102119.70
2023-03-17T07:57:12.384Z,102117.41
2023-03-17T07:59:41.907Z,102109.44
2023-03-17T08:02:18.301Z,102115.34
2023-03-17T08:04:47.391Z,102112.89
2023-03-17T08:07:15.788Z,102104.24
2023-03-17T08:09:44.134Z,102092.30
2023-03-17T08:12:12.978Z,102099.21
2023-03-17T08:14:41.812Z,102108.33
2023-03-17T08:17:10.689Z,102111.55
2023-03-17T08:19:39.626Z,102102.08
2023-03-17T08:22:08.263Z,102106.47
2023-03-17T08:24:43.159Z,102108.02
2023-03-17T08:27:11.846Z,102103.05
2023-03-17T08:29:40.600Z,102103.11
2023-03-17T08:32:09.693Z,102106.99
2023-03-17T08:34:38.762Z,102109.79
2023-03-17T08:37:09.445Z,102100.54
2023-03-17T08:39:40.711Z,102099.52
2023-03-17T08:42:09.524Z,102095.06
2023-03-17T08:44:39.271Z,102109.38
2023-03-17T08:47:08.816Z,102091.86
2023-03-17T08:49:38.968Z,102088.71
2023-03-17T08:52:08.324Z,102089.77
2023-03-17T08:54:37.656Z,102093.42
2023-03-17T08:57:08.662Z,102083.83
2023-03-17T08:59:37.463Z,102079.75
2023-03-17T09:02:07.757Z,102077.92
2023-03-17T09:04:39.886Z,102072.70
2023-03-17T09:07:10.614Z,102085.66
2023-03-17T09:09:39.888Z,102081.63
2023-03-17T09:12:09.693Z,102064.16
2023-03-17T09:14:43.803Z,102062.02
2023-03-17T09:17:14.810Z,102067.59
2023-03-17T09:19:43.856Z,102068.34
2023-03-17T09:22:14.977Z,102077.88
2023-03-17T09:24:43.476Z,102074.38
2023-03-17T09:27:11.993Z,102061.55
2023-03-17T09:29:42.508Z,102064.21
2023-03-17T09:32:11.479Z,102064.67
2023-03-17T09:34:40.026Z,102076.70
2023-03-17T09:37:10.107Z,102063.52
2023-03-17T09:39:38.742Z,102062.07
2023-03-17T09:42:23.136Z,102068.13
2023-03-17T09:45:56.545Z,102062.81
2023-03-17T09:48:25.568Z,102058.37
2023-03-17T09:51:14.629Z,102057.44
2023-03-17T09:54:02.889Z,102066.39
2023-03-17T09:56:36.984Z,102051.15
2023-03-17T09:59:15.617Z,102049.55
2023-03-17T10:01:44.276Z,102052.71
2023-03-17T10:04:12.878Z,102060.88
2023-03-17T10:06:50.405Z,102054.20
2023-03-17T10:09:26.171Z,102048.60
2023-03-17T10:12:04.444Z,102039.44
2023-03-17T10:14:41.822Z,102035.11
2023-03-17T10:17:18.683Z,102038.59
2023-03-17T10:20:05.744Z,102041.45
2023-03-17T10:22:46.475Z,102030.33
2023-03-17T10:25:28.188Z,102041.04
2023-03-17T10:28:09.218Z,102033.84
2023-03-17T10:30:38.405Z,102033.84
2023-03-17T10:33:09.759Z,102019.41
2023-03-17T10:35:39.743Z,102018.86
2023-03-17T10:38:34.800Z,102035.33
2023-03-17T10:41:12.717Z,102030.69
2023-03-17T10:43:47.710Z,102023.13
2023-03-17T10:46:26.316Z,102002.18
2023-03-17T10:48:58.587Z,101989.31
2023-03-17T10:51:37.838Z,102015.32
2023-03-17T10:54:17.894Z,102011.56
